createdAt,value
2023-05-08T00:00:13.626Z,27.38
2023-05-08T00:02:41.705Z,33.85
2023-05-08T00:05:08.340Z,29.48
2023-05-08T00:07:36.062Z,25.35
2023-05-08T00:10:02.705Z,28.65
2023-05-08T00:12:29.210Z,33.90
2023-05-08T00:14:55.977Z,34.38
2023-05-08T00:17:22.611Z,30.30
2023-05-08T00:19:49.298Z,28.52
2023-05-08T00:22:15.891Z,26.52
2023-05-08T00:24:42.619Z,34.33
2023-05-08T00:27:09.132Z,28.70
2023-05-08T00:29:36.006Z,31.48
2023-05-08T00:32:02.765Z,28.10
2023-05-08T00:34:29.374Z,27.63
2023-05-08T00:36:56.375Z,20.88
2023-05-08T00:39:23.010Z,23.73
2023-05-08T00:41:49.626Z,21.98
2023-05-08T00:44:16.272Z,21.85
2023-05-08T00:46:43.257Z,23.20
2023-05-08T00:49:13.258Z,26.25
2023-05-08T00:51:40.838Z,27.08
2023-05-08T00:54:07.332Z,26.38
2023-05-08T00:56:34.205Z,26.83
2023-05-08T00:59:01.401Z,26.73
2023-05-08T01:01:28.331Z,28.17
2023-05-08T01:03:55.038Z,24.65
2023-05-08T01:06:21.723Z,29.55
2023-05-08T01:08:49.185Z,23.15
2023-05-08T01:11:22.137Z,27.67
2023-05-08T01:13:51.803Z,27.50
2023-05-08T01:16:23.114Z,24.85
2023-05-08T01:18:55.882Z,25.50
2023-05-08T01:21:22.525Z,27.63
2023-05-08T01:23:49.210Z,27.02
2023-05-08T01:26:29.071Z,23.10
2023-05-08T01:29:11.384Z,23.20
2023-05-08T01:31:43.878Z,23.63
2023-05-08T01:34:30.697Z,28.13
2023-05-08T01:37:04.588Z,31.13
2023-05-08T01:39:39.336Z,29.25
2023-05-08T01:42:08.316Z,30.45
2023-05-08T01:44:40.098Z,45.65
2023-05-08T01:47:08.403Z,29.73
2023-05-08T01:49:38.365Z,35.10
2023-05-08T01:52:13.845Z,22.88
2023-05-08T01:54:44.692Z,25.10
2023-05-08T01:57:12.447Z,26.00
2023-05-08T01:59:41.711Z,22.08
2023-05-08T02:02:11.406Z,16.42
2023-05-08T02:04:38.682Z,20.13
2023-05-08T02:07:08.052Z,16.23
2023-05-08T02:09:34.917Z,13.98
2023-05-08T02:12:03.060Z,22.55
2023-05-08T02:14:30.423Z,19.75
2023-05-08T02:16:57.777Z,22.50
2023-05-08T02:19:25.157Z,15.90
2023-05-08T02:21:52.319Z,18.15
2023-05-08T02:24:19.602Z,19.25
2023-05-08T02:26:46.397Z,23.15
2023-05-08T02:29:14.026Z,13.30
2023-05-08T02:31:41.183Z,26.20
2023-05-08T02:34:08.421Z,22.60
2023-05-08T02:36:35.893Z,27.35
2023-05-08T02:39:03.124Z,22.42
2023-05-08T02:41:32.419Z,30.90
2023-05-08T02:43:59.200Z,29.15
2023-05-08T02:46:27.837Z,29.88
2023-05-08T02:48:54.727Z,21.40
2023-05-08T02:51:25.405Z,14.93
2023-05-08T02:53:58.628Z,24.73
2023-05-08T02:56:37.626Z,31.92
2023-05-08T02:59:14.257Z,24.98
2023-05-08T03:01:52.407Z,38.88
2023-05-08T03:04:28.354Z,22.33
2023-05-08T03:06:56.970Z,28.38
2023-05-08T03:09:26.407Z,26.48
2023-05-08T03:11:58.030Z,28.73
2023-05-08T03:14:27.042Z,32.63
2023-05-08T03:16:55.356Z,27.65
2023-05-08T03:19:28.416Z,32.83
2023-05-08T03:21:55.803Z,35.85
2023-05-08T03:24:24.600Z,51.03
2023-05-08T03:26:51.344Z,42.05
2023-05-08T03:29:18.590Z,39.55
2023-05-08T03:31:47.360Z,26.50
2023-05-08T03:34:14.869Z,35.00
2023-05-08T03:36:42.260Z,40.75
2023-05-08T03:39:09.228Z,34.17
2023-05-08T03:41:36.226Z,34.58
2023-05-08T03:44:03.544Z,31.55
2023-05-08T03:46:34.458Z,39.15
2023-05-08T03:49:03.076Z,32.75
2023-05-08T03:51:30.228Z,28.05
2023-05-08T03:53:57.011Z,30.20
2023-05-08T03:56:25.921Z,34.88
2023-05-08T03:59:13.519Z,41.40
2023-05-08T04:01:44.461Z,37.45
2023-05-08T04:04:18.381Z,38.15
2023-05-08T04:06:49.936Z,32.40
2023-05-08T04:09:24.986Z,34.80
2023-05-08T04:11:51.743Z,42.80
2023-05-08T04:14:19.768Z,37.67
2023-05-08T04:16:53.738Z,39.67
2023-05-08T04:19:25.174Z,34.13
2023-05-08T04:21:55.887Z,31.42
2023-05-08T04:24:23.588Z,47.25
2023-05-08T04:26:50.758Z,46.17
2023-05-08T04:29:17.869Z,35.83
2023-05-08T04:31:45.572Z,33.33
2023-05-08T04:34:12.540Z,38.95
2023-05-08T04:36:39.131Z,46.10
2023-05-08T04:39:06.881Z,29.30
2023-05-08T04:41:35.432Z,32.22
2023-05-08T04:44:03.365Z,35.38
2023-05-08T04:46:30.287Z,47.55
2023-05-08T04:48:57.290Z,44.08
2023-05-08T04:51:23.918Z,41.15
2023-05-08T04:53:50.767Z,37.30
2023-05-08T04:56:17.362Z,32.60
2023-05-08T04:58:44.365Z,27.42
2023-05-08T05:01:13.815Z,34.75
2023-05-08T05:03:40.638Z,25.23
2023-05-08T05:06:07.260Z,24.67
2023-05-08T05:08:33.949Z,24.02
2023-05-08T05:11:01.009Z,19.05
2023-05-08T05:13:28.588Z,23.35
2023-05-08T05:15:56.426Z,24.35
2023-05-08T05:18:23.603Z,23.58
2023-05-08T05:20:51.711Z,20.42
2023-05-08T05:23:18.558Z,22.10
2023-05-08T05:29:54.217Z,18.35
2023-05-08T05:32:21.171Z,23.13
2023-05-08T05:34:48.295Z,25.67
2023-05-08T05:37:14.965Z,23.02
2023-05-08T05:39:41.626Z,22.20
2023-05-08T05:42:08.892Z,21.50
2023-05-08T05:44:35.555Z,20.48
2023-05-08T05:47:02.237Z,21.45
2023-05-08T05:49:28.825Z,17.67
2023-05-08T05:51:55.598Z,19.98
2023-05-08T05:54:22.286Z,22.65
2023-05-08T05:56:49.249Z,17.23
2023-05-08T05:59:15.789Z,15.98
2023-05-08T06:01:42.523Z,16.73
2023-05-08T06:04:09.302Z,16.63
2023-05-08T06:06:36.105Z,19.45
2023-05-08T06:09:02.634Z,18.40
2023-05-08T06:11:29.173Z,14.10
2023-05-08T06:13:55.736Z,15.90
2023-05-08T06:16:30.711Z,18.05
2023-05-08T06:18:57.483Z,22.75
2023-05-08T06:21:25.187Z,22.35
2023-05-08T06:23:52.321Z,23.63
2023-05-08T06:26:18.789Z,13.98
2023-05-08T06:28:45.418Z,14.23
2023-05-08T06:31:12.031Z,16.65
2023-05-08T06:33:38.909Z,17.48
2023-05-08T06:36:06.220Z,15.55
2023-05-08T06:38:32.853Z,11.95
2023-05-08T06:40:59.473Z,14.95
2023-05-08T06:43:26.182Z,14.95
2023-05-08T06:45:53.182Z,13.77
2023-05-08T06:48:20.133Z,14.00
2023-05-08T06:50:48.082Z,12.18
2023-05-08T06:53:14.630Z,12.05
2023-05-08T06:55:42.931Z,13.95
2023-05-08T06:58:09.499Z,13.13
2023-05-08T07:00:36.103Z,14.68
2023-05-08T07:03:02.761Z,13.68
2023-05-08T07:05:29.378Z,16.45
2023-05-08T07:07:56.148Z,16.60
2023-05-08T07:10:23.058Z,13.73
2023-05-08T07:12:49.857Z,15.48
2023-05-08T07:15:25.332Z,17.60
2023-05-08T07:17:52.913Z,16.05
2023-05-08T07:20:19.775Z,24.30
2023-05-08T07:22:46.674Z,15.05
2023-05-08T07:25:13.443Z,14.60
2023-05-08T07:27:40.243Z,12.35
2023-05-08T07:30:07.188Z,12.63
2023-05-08T07:32:33.881Z,11.80
2023-05-08T07:35:08.362Z,12.77
2023-05-08T07:37:36.813Z,11.77
2023-05-08T07:40:03.525Z,13.10
2023-05-08T07:42:30.343Z,15.25
2023-05-08T07:44:56.882Z,14.00
2023-05-08T07:47:23.496Z,14.20
2023-05-08T07:49:50.068Z,12.75
2023-05-08T07:52:16.802Z,15.00
2023-05-08T07:54:43.876Z,14.98
2023-05-08T07:57:11.437Z,13.10
2023-05-08T07:59:38.047Z,15.32
2023-05-08T08:02:04.867Z,14.30
2023-05-08T08:04:31.576Z,17.00
2023-05-08T08:06:58.248Z,14.57
2023-05-08T08:09:24.901Z,16.15
2023-05-08T08:11:51.578Z,15.55
2023-05-08T08:14:18.105Z,15.52
2023-05-08T08:16:44.759Z,18.25
2023-05-08T08:19:11.300Z,16.38
2023-05-08T08:21:42.515Z,21.17
2023-05-08T08:24:09.069Z,18.20
2023-05-08T08:26:35.572Z,20.15
2023-05-08T08:29:02.281Z,18.50
2023-05-08T08:31:29.067Z,19.45
2023-05-08T08:33:56.843Z,18.30
2023-05-08T08:36:23.339Z,19.77
2023-05-08T08:38:49.914Z,21.42
2023-05-08T08:41:16.456Z,20.50
2023-05-08T08:43:46.112Z,22.45
2023-05-08T08:46:16.196Z,21.05
2023-05-08T08:48:46.585Z,125.68
2023-05-08T08:51:23.443Z,26.67
2023-05-08T08:53:53.342Z,50.60
2023-05-08T08:56:21.366Z,30.67
2023-05-08T08:58:51.158Z,48.55
2023-05-08T09:01:18.665Z,27.02
2023-05-08T09:03:47.469Z,23.83
2023-05-08T09:06:15.098Z,21.25
2023-05-08T09:08:42.234Z,25.77
2023-05-08T09:11:08.953Z,17.33
2023-05-08T09:13:35.694Z,23.67
2023-05-08T09:16:02.690Z,17.83
2023-05-08T09:18:29.316Z,16.23
2023-05-08T09:20:56.464Z,17.92
2023-05-08T09:23:23.241Z,19.13
2023-05-08T09:25:53.949Z,16.25
2023-05-08T09:28:21.505Z,18.23
2023-05-08T09:30:55.366Z,19.98
2023-05-08T09:33:23.073Z,17.55
2023-05-08T09:35:49.831Z,19.50
2023-05-08T09:38:36.076Z,19.10
2023-05-08T09:41:15.936Z,18.40
2023-05-08T09:43:43.749Z,18.85
2023-05-08T09:46:22.579Z,18.30
2023-05-08T09:48:49.609Z,18.33
2023-05-08T09:51:16.274Z,20.30
2023-05-08T09:53:42.803Z,17.90
2023-05-08T09:56:09.756Z,20.50
2023-05-08T09:58:40.534Z,19.00
2023-05-08T10:01:07.800Z,19.17
2023-05-08T10:04:04.234Z,19.58
2023-05-08T10:06:31.056Z,19.17
2023-05-08T10:09:10.668Z,20.70
2023-05-08T10:11:38.004Z,22.45
2023-05-08T10:14:04.727Z,17.40
2023-05-08T10:16:31.891Z,19.13
2023-05-08T10:19:01.138Z,17.83
2023-05-08T10:21:32.933Z,17.77
2023-05-08T10:24:02.317Z,17.23
2023-05-08T10:26:30.859Z,18.42
2023-05-08T10:29:04.851Z,16.70
2023-05-08T10:31:34.253Z,18.65
2023-05-08T10:34:05.057Z,21.30
2023-05-08T10:36:32.567Z,18.35
2023-05-08T10:38:59.229Z,16.85
2023-05-08T10:41:28.001Z,18.30
2023-05-08T10:43:54.636Z,17.90
2023-05-08T10:46:50.872Z,17.40
2023-05-08T10:49:25.709Z,17.95
2023-05-08T10:52:01.357Z,17.60
2023-05-08T10:54:38.585Z,19.13
2023-05-08T10:57:09.488Z,20.92
2023-05-08T10:59:39.601Z,18.75
2023-05-08T11:02:07.305Z,17.98
2023-05-08T11:04:34.773Z,16.98
2023-05-08T11:07:01.705Z,18.48
2023-05-08T11:09:29.203Z,22.08
2023-05-08T11:12:09.933Z,24.83
2023-05-08T11:14:38.051Z,20.20
2023-05-08T11:17:04.951Z,17.35
2023-05-08T11:19:31.934Z,20.20
2023-05-08T11:22:18.311Z,18.55
2023-05-08T11:24:49.253Z,20.20
2023-05-08T11:27:16.095Z,19.55
2023-05-08T11:29:42.644Z,24.00
2023-05-08T11:32:09.440Z,20.13
2023-05-08T11:34:42.111Z,20.52
2023-05-08T11:37:09.439Z,23.38
2023-05-08T11:39:36.004Z,22.52
2023-05-08T11:42:35.159Z,19.35
2023-05-08T11:45:01.980Z,18.85
2023-05-08T11:47:32.301Z,18.20
2023-05-08T11:49:59.368Z,21.20
2023-05-08T11:52:26.466Z,20.02
2023-05-08T11:54:53.421Z,19.15
2023-05-08T11:57:20.025Z,17.75
2023-05-08T11:59:49.693Z,16.67
2023-05-08T12:02:16.598Z,19.73
2023-05-08T12:04:44.576Z,21.80
2023-05-08T12:07:11.941Z,26.13
2023-05-08T12:09:38.782Z,20.67
2023-05-08T12:12:05.484Z,21.02
2023-05-08T12:14:34.655Z,21.30
2023-05-08T12:17:02.485Z,19.10
2023-05-08T12:19:29.144Z,18.02
2023-05-08T12:21:57.022Z,17.85
2023-05-08T12:24:26.313Z,21.50
2023-05-08T12:26:56.533Z,21.13
2023-05-08T12:29:23.916Z,23.02
2023-05-08T12:31:51.117Z,22.45
2023-05-08T12:34:17.798Z,23.02
2023-05-08T12:36:44.417Z,20.38
2023-05-08T12:39:11.741Z,21.70
2023-05-08T12:41:51.533Z,25.35
2023-05-08T12:44:18.845Z,23.95
2023-05-08T12:46:55.815Z,20.60
2023-05-08T12:49:29.404Z,20.40
2023-05-08T12:52:09.076Z,22.15
2023-05-08T12:54:40.023Z,25.75
2023-05-08T12:57:13.190Z,24.83
2023-05-08T12:59:40.193Z,22.35
2023-05-08T13:02:33.521Z,22.35
2023-05-08T13:05:03.631Z,19.52
2023-05-08T13:07:33.458Z,19.58
2023-05-08T13:10:03.795Z,20.00
2023-05-08T13:12:30.960Z,26.48
2023-05-08T13:14:57.981Z,21.83
2023-05-08T13:17:24.957Z,24.85
2023-05-08T13:19:53.068Z,26.85
2023-05-08T13:22:27.694Z,26.02
2023-05-08T13:25:02.031Z,27.70
2023-05-08T13:27:31.729Z,25.55
2023-05-08T13:30:15.473Z,27.95
2023-05-08T13:32:56.496Z,32.40
2023-05-08T13:35:29.645Z,26.05
2023-05-08T13:41:39.072Z,30.33
2023-05-08T13:44:08.404Z,24.98
2023-05-08T13:46:39.007Z,26.25
2023-05-08T13:49:08.002Z,24.83
2023-05-08T13:51:37.960Z,26.45
2023-05-08T13:54:04.696Z,30.90
2023-05-08T13:56:31.496Z,24.52
2023-05-08T13:58:58.405Z,30.17
2023-05-08T14:01:27.086Z,24.48
2023-05-08T14:03:54.679Z,23.25
2023-05-08T14:06:21.562Z,25.67
2023-05-08T14:08:57.299Z,39.78
2023-05-08T14:11:33.261Z,24.25
2023-05-08T14:14:00.127Z,21.65
2023-05-08T14:16:30.151Z,19.75
2023-05-08T14:18:59.220Z,18.70
2023-05-08T14:21:28.795Z,21.88
2023-05-08T14:23:59.030Z,14.57
2023-05-08T14:26:26.609Z,13.05
2023-05-08T14:29:00.980Z,15.85
2023-05-08T14:31:38.093Z,16.75
2023-05-08T14:34:08.176Z,18.35
2023-05-08T14:36:34.790Z,18.20
2023-05-08T14:39:04.055Z,17.33
2023-05-08T14:41:31.239Z,16.73
2023-05-08T14:44:01.241Z,13.55
2023-05-08T14:46:30.235Z,11.85
2023-05-08T14:48:57.090Z,19.10
2023-05-08T14:51:25.098Z,10.68
2023-05-08T14:53:51.926Z,12.57
2023-05-08T14:56:19.099Z,11.95
2023-05-08T14:58:49.583Z,11.15
2023-05-08T15:01:20.172Z,10.10
2023-05-08T15:03:52.969Z,6.57
2023-05-08T15:06:23.452Z,8.50
2023-05-08T15:08:51.798Z,7.30
2023-05-08T15:11:18.297Z,7.55
2023-05-08T15:13:45.164Z,12.65
2023-05-08T15:16:11.748Z,9.60
2023-05-08T15:18:39.004Z,9.38
2023-05-08T15:21:05.798Z,11.20
2023-05-08T15:23:32.532Z,8.00
2023-05-08T15:25:59.165Z,8.57
2023-05-08T15:28:26.617Z,8.57
2023-05-08T15:30:53.153Z,9.32
2023-05-08T15:33:19.720Z,8.25
2023-05-08T15:35:46.461Z,10.63
2023-05-08T15:38:13.129Z,11.52
2023-05-08T15:40:39.968Z,12.45
2023-05-08T15:43:07.135Z,8.65
2023-05-08T15:45:33.669Z,10.48
2023-05-08T15:48:00.298Z,8.00
2023-05-08T15:50:27.009Z,9.23
2023-05-08T15:52:53.551Z,9.68
2023-05-08T15:55:21.443Z,8.07
2023-05-08T15:57:49.428Z,8.55
2023-05-08T16:00:18.156Z,7.95
2023-05-08T16:02:44.878Z,8.32
2023-05-08T16:05:11.720Z,10.40
2023-05-08T16:07:38.565Z,7.13
2023-05-08T16:10:07.334Z,9.30
2023-05-08T16:12:34.267Z,13.63
2023-05-08T16:15:00.819Z,9.70
2023-05-08T16:17:27.422Z,7.38
2023-05-08T16:19:54.390Z,7.70
2023-05-08T16:22:23.213Z,10.45
2023-05-08T16:24:52.473Z,7.80
2023-05-08T16:27:19.348Z,8.73
2023-05-08T16:29:46.232Z,13.05
2023-05-08T16:32:12.860Z,10.65
2023-05-08T16:34:39.608Z,9.13
2023-05-08T16:37:06.313Z,9.75
2023-05-08T16:39:32.861Z,10.07
2023-05-08T16:41:59.405Z,9.98
2023-05-08T16:44:26.382Z,6.50
2023-05-08T16:46:53.081Z,10.70
2023-05-08T16:49:19.640Z,10.70
2023-05-08T16:51:46.339Z,10.32
2023-05-08T16:54:12.841Z,8.07
2023-05-08T16:56:39.341Z,10.32
2023-05-08T16:59:08.692Z,9.82
2023-05-08T17:01:35.563Z,7.72
2023-05-08T17:04:02.150Z,10.55
2023-05-08T17:06:28.913Z,9.90
2023-05-08T17:08:55.596Z,9.07
2023-05-08T17:11:22.514Z,7.60
2023-05-08T17:13:49.012Z,9.43
2023-05-08T17:16:16.738Z,12.43
2023-05-08T17:18:44.464Z,13.32
2023-05-08T17:21:11.062Z,10.63
2023-05-08T17:23:37.674Z,9.93
2023-05-08T17:26:04.390Z,10.60
2023-05-08T17:28:31.192Z,9.63
2023-05-08T17:30:57.763Z,8.85
2023-05-08T17:33:24.524Z,11.10
2023-05-08T17:35:51.210Z,10.43
2023-05-08T17:38:17.771Z,10.07
2023-05-08T17:40:44.396Z,9.20
2023-05-08T17:43:10.989Z,10.88
2023-05-08T17:45:37.874Z,9.98
2023-05-08T17:48:05.012Z,9.68
2023-05-08T17:50:31.569Z,7.72
2023-05-08T17:52:58.010Z,8.45
2023-05-08T17:55:24.593Z,11.93
2023-05-08T17:57:51.167Z,10.35
2023-05-08T18:00:17.881Z,8.45
2023-05-08T18:02:44.480Z,9.20
2023-05-08T18:05:11.177Z,9.63
2023-05-08T18:07:37.679Z,9.50
2023-05-08T18:10:04.495Z,9.40
2023-05-08T18:12:31.992Z,10.18
2023-05-08T18:14:59.596Z,10.00
2023-05-08T18:17:29.273Z,9.63
2023-05-08T18:19:55.947Z,12.68
2023-05-08T18:22:22.477Z,8.38
2023-05-08T18:24:50.074Z,9.00
2023-05-08T18:27:16.676Z,7.75
2023-05-08T18:29:43.233Z,7.60
2023-05-08T18:32:11.367Z,9.27
2023-05-08T18:34:38.001Z,11.00
2023-05-08T18:37:04.472Z,11.90
2023-05-08T18:39:31.083Z,8.65
2023-05-08T18:41:57.569Z,8.07
2023-05-08T18:44:24.175Z,11.45
2023-05-08T18:46:50.715Z,12.60
2023-05-08T18:49:17.343Z,8.82
2023-05-08T18:51:43.839Z,12.07
2023-05-08T18:54:10.426Z,9.60
2023-05-08T18:56:36.959Z,9.68
2023-05-08T18:59:03.732Z,10.07
2023-05-08T19:01:30.254Z,9.10
2023-05-08T19:03:57.051Z,9.23
2023-05-08T19:06:23.705Z,8.70
2023-05-08T19:08:52.166Z,10.13
2023-05-08T19:11:22.041Z,12.20
2023-05-08T19:13:51.620Z,10.48
2023-05-08T19:16:18.160Z,6.72
2023-05-08T19:18:45.009Z,10.88
2023-05-08T19:21:11.691Z,8.77
2023-05-08T19:23:38.422Z,8.45
2023-05-08T19:26:05.199Z,9.95
2023-05-08T19:28:31.910Z,10.30
2023-05-08T19:30:59.094Z,10.63
2023-05-08T19:33:25.822Z,11.20
2023-05-08T19:35:52.480Z,8.63
2023-05-08T19:38:19.205Z,10.30
2023-05-08T19:40:57.294Z,12.40
2023-05-08T19:43:25.395Z,9.85
2023-05-08T19:45:51.912Z,9.77
2023-05-08T19:48:20.030Z,7.53
2023-05-08T19:50:46.677Z,10.25
2023-05-08T19:53:13.265Z,8.95
2023-05-08T19:55:39.738Z,14.52
2023-05-08T19:58:06.525Z,16.75
2023-05-08T20:00:33.152Z,13.73
2023-05-08T20:02:59.788Z,10.07
2023-05-08T20:05:28.294Z,9.73
2023-05-08T20:07:55.133Z,10.30
2023-05-08T20:10:21.914Z,11.15
2023-05-08T20:12:49.049Z,11.10
2023-05-08T20:15:15.775Z,10.13
2023-05-08T20:17:42.585Z,10.10
2023-05-08T20:20:09.630Z,10.65
2023-05-08T20:22:37.781Z,11.38
2023-05-08T20:25:06.512Z,10.73
2023-05-08T20:27:33.049Z,9.15
2023-05-08T20:29:59.655Z,9.15
2023-05-08T20:32:26.529Z,9.25
2023-05-08T20:34:53.222Z,12.55
2023-05-08T20:37:19.910Z,10.77
2023-05-08T20:39:46.404Z,13.13
2023-05-08T20:42:13.256Z,12.82
2023-05-08T20:44:39.944Z,11.02
2023-05-08T20:47:06.711Z,9.80
2023-05-08T20:49:33.635Z,9.70
2023-05-08T20:52:00.245Z,13.13
2023-05-08T20:54:28.749Z,13.13
2023-05-08T20:56:55.386Z,10.55
2023-05-08T20:59:23.236Z,7.63
2023-05-08T21:01:49.988Z,11.52
2023-05-08T21:04:17.015Z,10.35
2023-05-08T21:06:43.622Z,10.52
2023-05-08T21:09:10.113Z,11.55
2023-05-08T21:11:36.628Z,11.45
2023-05-08T21:14:03.134Z,9.40
2023-05-08T21:16:29.634Z,8.50
2023-05-08T21:18:58.240Z,11.23
2023-05-08T21:21:25.361Z,11.82
2023-05-08T21:23:51.819Z,11.20
2023-05-08T21:26:20.059Z,9.05
2023-05-08T21:28:46.616Z,11.50
2023-05-08T21:31:13.234Z,8.45
2023-05-08T21:33:39.973Z,10.32
2023-05-08T21:36:06.644Z,10.05
2023-05-08T21:38:33.105Z,11.18
2023-05-08T21:41:04.984Z,14.70
2023-05-08T21:43:31.548Z,10.90
2023-05-08T21:45:58.079Z,14.00
2023-05-08T21:48:24.782Z,11.25
2023-05-08T21:50:51.450Z,10.95
2023-05-08T21:53:18.066Z,12.50
2023-05-08T21:55:44.539Z,13.07
2023-05-08T21:58:11.417Z,13.32
2023-05-08T22:00:37.882Z,14.88
2023-05-08T22:03:04.555Z,12.10
2023-05-08T22:05:31.230Z,12.13
2023-05-08T22:07:57.827Z,12.50
2023-05-08T22:10:25.578Z,12.55
2023-05-08T22:12:52.240Z,11.55
2023-05-08T22:15:28.911Z,16.00
2023-05-08T22:17:56.924Z,11.85
2023-05-08T22:20:23.481Z,13.15
2023-05-08T22:22:50.598Z,13.80
2023-05-08T22:25:17.240Z,16.70
2023-05-08T22:27:43.761Z,11.70
2023-05-08T22:30:10.757Z,15.02
2023-05-08T22:32:37.390Z,14.43
2023-05-08T22:35:04.028Z,17.75
2023-05-08T22:37:30.577Z,15.77
2023-05-08T22:39:57.036Z,13.18
2023-05-08T22:42:24.188Z,15.07
2023-05-08T22:44:51.024Z,16.83
2023-05-08T22:47:17.667Z,16.30
2023-05-08T22:49:44.158Z,15.98
2023-05-08T22:52:10.773Z,17.45
2023-05-08T22:54:37.363Z,17.73
2023-05-08T22:57:03.953Z,17.15
2023-05-08T22:59:30.602Z,15.73
2023-05-08T23:01:57.158Z,15.68
2023-05-08T23:04:23.623Z,12.77
2023-05-08T23:06:50.209Z,14.75
2023-05-08T23:09:16.742Z,17.25
2023-05-08T23:11:43.297Z,17.05
2023-05-08T23:14:09.731Z,17.27
2023-05-08T23:16:36.410Z,15.07
2023-05-08T23:19:04.582Z,14.57
2023-05-08T23:21:32.063Z,12.80
2023-05-08T23:23:59.077Z,14.82
2023-05-08T23:26:26.210Z,15.32
2023-05-08T23:28:52.715Z,14.23
2023-05-08T23:31:19.517Z,17.98
2023-05-08T23:33:46.013Z,16.13
2023-05-08T23:36:12.549Z,16.60
2023-05-08T23:38:39.096Z,17.10
2023-05-08T23:41:05.798Z,15.07
2023-05-08T23:43:32.410Z,16.92
2023-05-08T23:45:59.024Z,14.85
2023-05-08T23:48:25.867Z,16.42
2023-05-08T23:50:52.426Z,13.88
2023-05-08T23:53:19.140Z,15.68
2023-05-08T23:55:48.858Z,14.50
2023-05-08T23:58:15.630Z,15.75
